Time;durP1;ratioP1;P1;durP2;ratioP2;P2;SDS_P1;SDS_P2;PMS_P1;PMS_P2;Temp;Humidity;BMP_temperature;BMP_pressure;BME280_temperature;BME280_humidity;BME280_pressure;Samples;Min_cycle;Max_cycle;Signal;HPM_P1;HPM_P2
2021/01/22 00:01:45;;;;;;;1.75;1.65;;;6.00;97.80;;;;;;4986144;28;20030;-43
2021/01/22 00:04:11;;;;;;;2.13;1.92;;;5.90;98.00;;;;;;4986953;28;20038;-42
2021/01/22 00:06:39;;;;;;;2.75;2.10;;;5.80;98.10;;;;;;4986482;28;20042;-43
2021/01/22 00:09:05;;;;;;;2.20;2.00;;;5.70;98.40;;;;;;4986534;28;20446;-43
2021/01/22 00:11:33;;;;;;;2.13;1.92;;;5.60;98.70;;;;;;4986732;28;20022;-43
2021/01/22 00:13:59;;;;;;;2.00;1.80;;;5.50;99.00;;;;;;4986693;28;20026;-43
2021/01/22 00:16:24;;;;;;;2.47;2.28;;;5.50;99.00;;;;;;4986124;28;20089;-43
2021/01/22 00:18:50;;;;;;;2.08;1.83;;;5.40;99.00;;;;;;4986437;28;20517;-43
2021/01/22 00:21:15;;;;;;;2.50;2.30;;;5.40;98.90;;;;;;4985917;28;20026;-43
2021/01/22 00:23:41;;;;;;;2.25;1.90;;;5.30;99.10;;;;;;4985346;28;20030;-43
2021/01/22 00:26:07;;;;;;;2.10;1.95;;;5.30;99.00;;;;;;4985681;28;20046;-41
2021/01/22 00:28:34;;;;;;;2.65;2.45;;;5.20;99.00;;;;;;4985782;28;20033;-42
2021/01/22 00:31:02;;;;;;;2.00;1.90;;;5.20;99.20;;;;;;4986526;28;20526;-42
2021/01/22 00:33:27;;;;;;;2.75;2.55;;;5.10;99.00;;;;;;4986798;28;20056;-42
2021/01/22 00:35:53;;;;;;;2.15;1.88;;;5.10;99.10;;;;;;4986098;28;20054;-42
2021/01/22 00:38:18;;;;;;;1.92;1.83;;;5.10;99.10;;;;;;4986442;28;20488;-43
2021/01/22 00:40:44;;;;;;;1.60;1.50;;;5.00;98.70;;;;;;4985859;28;20443;-42
2021/01/22 00:43:11;;;;;;;1.73;1.63;;;4.90;98.70;;;;;;4985537;28;20452;-43
2021/01/22 00:45:36;;;;;;;1.80;1.70;;;4.90;98.80;;;;;;4986049;28;20045;-43
2021/01/22 00:48:02;;;;;;;1.42;1.33;;;4.80;98.80;;;;;;4985112;28;20022;-43
2021/01/22 00:50:28;;;;;;;1.95;1.75;;;4.70;98.80;;;;;;4986189;28;20033;-43
2021/01/22 00:52:53;;;;;;;3.90;2.42;;;4.70;99.00;;;;;;4985077;28;20033;-42
2021/01/22 00:55:19;;;;;;;2.08;1.88;;;4.70;98.90;;;;;;4986088;28;20069;-45
2021/01/22 00:57:44;;;;;;;3.00;2.08;;;4.70;98.90;;;;;;4985254;28;20034;-42
2021/01/22 01:00:11;;;;;;;2.10;1.90;;;4.60;98.80;;;;;;4986492;28;20042;-43
2021/01/22 01:02:37;;;;;;;2.83;2.38;;;4.60;98.90;;;;;;4985710;28;20105;-42
2021/01/22 01:05:06;;;;;;;2.45;2.25;;;4.50;98.80;;;;;;4984876;28;20157;-43
2021/01/22 01:07:36;;;;;;;3.03;2.40;;;4.50;99.00;;;;;;4986415;28;20034;-43
2021/01/22 01:10:04;;;;;;;2.53;2.05;;;4.50;99.10;;;;;;4985935;28;20034;-42
2021/01/22 01:12:29;;;;;;;2.42;2.22;;;4.60;99.10;;;;;;4986036;28;20828;-42
2021/01/22 01:14:55;;;;;;;2.55;2.35;;;4.60;99.00;;;;;;4985501;28;20062;-42
2021/01/22 01:17:21;;;;;;;2.33;2.13;;;4.60;99.00;;;;;;4985905;28;20031;-46
2021/01/22 01:19:46;;;;;;;2.38;2.17;;;4.70;99.00;;;;;;4985165;28;20014;-43
2021/01/22 01:22:12;;;;;;;2.40;2.10;;;4.70;99.00;;;;;;4986262;28;20130;-42
2021/01/22 01:24:37;;;;;;;2.20;2.00;;;4.80;98.90;;;;;;4985168;28;20030;-43
2021/01/22 01:27:03;;;;;;;1.92;1.83;;;4.80;98.90;;;;;;4984949;28;20101;-43
2021/01/22 01:29:28;;;;;;;1.88;1.77;;;4.80;98.90;;;;;;4985868;28;20058;-42
2021/01/22 01:31:53;;;;;;;2.30;1.92;;;4.90;98.90;;;;;;4985218;28;20030;-42
2021/01/22 01:34:19;;;;;;;2.28;2.05;;;4.90;98.80;;;;;;4985699;28;20468;-42
2021/01/22 01:36:44;;;;;;;1.80;1.70;;;4.90;98.70;;;;;;4985512;28;20038;-43
2021/01/22 01:39:13;;;;;;;2.25;2.00;;;4.90;98.70;;;;;;4988099;28;20033;-43
2021/01/22 01:41:39;;;;;;;2.40;2.20;;;5.00;98.70;;;;;;4989506;28;20041;-42
2021/01/22 01:44:05;;;;;;;2.45;1.85;;;4.90;98.70;;;;;;4989639;28;20824;-43
2021/01/22 01:46:30;;;;;;;4.13;2.20;;;4.90;98.70;;;;;;4989351;28;20081;-43
2021/01/22 01:48:56;;;;;;;2.85;2.20;;;4.90;98.70;;;;;;4989090;28;20022;-42
2021/01/22 01:51:22;;;;;;;2.65;1.92;;;4.90;98.60;;;;;;4989348;28;20056;-43
2021/01/22 01:53:48;;;;;;;3.15;2.35;;;4.90;98.70;;;;;;4988115;28;20459;-43
2021/01/22 01:56:14;;;;;;;2.40;2.05;;;4.90;98.70;;;;;;4989744;28;20377;-43
2021/01/22 01:58:39;;;;;;;2.72;2.40;;;4.90;98.70;;;;;;4988832;28;20129;-42
2021/01/22 02:01:08;;;;;;;2.60;2.30;;;4.90;99.00;;;;;;4989004;28;20540;-43
2021/01/22 02:03:36;;;;;;;2.20;2.00;;;4.90;98.70;;;;;;4988901;28;20419;-43
2021/01/22 02:06:04;;;;;;;2.42;2.08;;;4.90;98.70;;;;;;4988397;28;20038;-43
2021/01/22 02:08:30;;;;;;;2.50;2.30;;;4.90;98.90;;;;;;4988994;28;20117;-43
2021/01/22 02:10:58;;;;;;;3.28;2.90;;;5.00;98.70;;;;;;4987721;28;20115;-43
2021/01/22 02:13:28;;;;;;;4.13;3.33;;;4.90;98.70;;;;;;4988947;28;20029;-42
2021/01/22 02:15:59;;;;;;;4.43;3.83;;;4.90;98.60;;;;;;4988065;28;20059;-43
2021/01/22 02:18:25;;;;;;;3.85;3.35;;;4.90;98.70;;;;;;4988110;28;20415;-43
2021/01/22 02:21:11;;;;;;;4.35;3.63;;;4.90;98.70;;;;;;4987546;28;20480;-42
2021/01/22 02:23:41;;;;;;;4.65;3.70;;;4.80;98.70;;;;;;4988582;28;20036;-41
2021/01/22 02:26:30;;;;;;;5.82;4.50;;;4.90;98.80;;;;;;4988283;28;20097;-42
2021/01/22 02:29:02;;;;;;;6.93;4.55;;;4.80;98.70;;;;;;4982247;28;20042;-42
2021/01/22 02:31:29;;;;;;;6.67;5.10;;;4.80;98.70;;;;;;4987928;28;20033;-42
2021/01/22 02:33:58;;;;;;;8.23;4.82;;;4.80;98.80;;;;;;4987918;28;20284;-41
2021/01/22 02:36:24;;;;;;;6.10;5.45;;;4.80;98.80;;;;;;4988366;28;20027;-42
2021/01/22 02:38:52;;;;;;;6.05;5.45;;;4.80;98.90;;;;;;4987582;28;20030;-42
2021/01/22 02:41:22;;;;;;;6.63;5.30;;;4.80;98.90;;;;;;4988375;28;20454;-42
2021/01/22 02:43:54;;;;;;;6.90;5.60;;;4.80;98.90;;;;;;4987220;28;20057;-42
2021/01/22 02:46:21;;;;;;;7.22;5.93;;;4.80;98.90;;;;;;4988105;28;20030;-42
2021/01/22 02:48:47;;;;;;;8.40;6.35;;;4.70;98.90;;;;;;4987829;28;20034;-43
2021/01/22 02:51:16;;;;;;;8.02;7.03;;;4.80;98.90;;;;;;4987469;28;20105;-42
2021/01/22 02:53:42;;;;;;;9.23;6.93;;;4.80;98.90;;;;;;4987290;28;20442;-42
2021/01/22 02:56:17;;;;;;;8.52;7.07;;;4.70;98.90;;;;;;4988243;28;20029;-42
2021/01/22 02:59:05;;;;;;;8.80;7.07;;;4.70;98.80;;;;;;4976341;28;20046;-43
2021/01/22 03:01:36;;;;;;;9.77;7.30;;;4.70;98.80;;;;;;4988436;28;20378;-42
2021/01/22 03:04:07;;;;;;;8.05;6.75;;;4.60;98.80;;;;;;4987648;28;20209;-43
2021/01/22 03:06:38;;;;;;;9.25;7.35;;;4.50;98.80;;;;;;4987765;28;20042;-42
2021/01/22 03:09:05;;;;;;;7.60;6.50;;;4.50;98.90;;;;;;4977542;28;20087;-43
2021/01/22 03:11:34;;;;;;;7.90;6.68;;;4.50;99.00;;;;;;4987922;28;20018;-42
2021/01/22 03:14:03;;;;;;;8.77;6.38;;;4.50;99.00;;;;;;4987656;28;20028;-42
2021/01/22 03:16:32;;;;;;;7.63;6.43;;;4.50;99.00;;;;;;4987879;28;20031;-43
2021/01/22 03:19:03;;;;;;;9.15;6.93;;;4.50;98.90;;;;;;4983458;28;20029;-42
2021/01/22 03:21:32;;;;;;;7.13;6.35;;;4.50;98.90;;;;;;4987671;28;20387;-42
2021/01/22 03:23:58;;;;;;;8.55;6.60;;;4.50;98.90;;;;;;4987259;28;20125;-42
2021/01/22 03:26:24;;;;;;;7.45;6.38;;;4.40;98.90;;;;;;4987646;28;20133;-42
2021/01/22 03:28:50;;;;;;;8.40;6.32;;;4.50;98.90;;;;;;4986845;28;20098;-42
2021/01/22 03:31:16;;;;;;;7.80;5.78;;;4.40;98.90;;;;;;4987829;28;20421;-42
2021/01/22 03:33:41;;;;;;;8.32;6.32;;;4.40;98.90;;;;;;4986867;28;20034;-42
2021/01/22 03:36:07;;;;;;;11.73;7.20;;;4.40;99.00;;;;;;4988043;28;20026;-42
2021/01/22 03:38:33;;;;;;;8.65;6.20;;;4.50;99.10;;;;;;4986544;28;20046;-42
2021/01/22 03:41:02;;;;;;;7.63;5.95;;;4.50;99.10;;;;;;4987165;28;20046;-42
2021/01/22 03:43:30;;;;;;;9.57;7.00;;;4.50;99.00;;;;;;4987311;28;20030;-43
2021/01/22 03:45:56;;;;;;;7.63;5.78;;;4.50;98.90;;;;;;4986608;28;20038;-42
2021/01/22 03:48:24;;;;;;;5.72;5.18;;;4.50;99.00;;;;;;4986837;28;20041;-42
2021/01/22 03:50:50;;;;;;;5.18;4.63;;;4.40;98.90;;;;;;4986608;28;20045;-42
2021/01/22 03:53:15;;;;;;;8.32;5.30;;;4.40;98.90;;;;;;4986816;28;20026;-43
2021/01/22 03:55:44;;;;;;;5.00;4.50;;;4.30;99.00;;;;;;4986469;28;20722;-43
2021/01/22 03:58:10;;;;;;;5.88;4.60;;;4.30;99.00;;;;;;4987325;28;20018;-43
2021/01/22 04:00:36;;;;;;;4.30;3.83;;;4.30;99.10;;;;;;4986100;28;20022;-42
2021/01/22 04:03:02;;;;;;;4.80;3.40;;;4.30;99.20;;;;;;4986657;28;20085;-42
2021/01/22 04:05:27;;;;;;;4.55;3.58;;;4.30;99.20;;;;;;4987242;28;20049;-42
2021/01/22 04:07:53;;;;;;;3.33;3.03;;;4.30;99.30;;;;;;4986132;28;20027;-42
2021/01/22 04:10:18;;;;;;;4.25;3.63;;;4.30;99.30;;;;;;4986309;28;20490;-42
2021/01/22 04:12:44;;;;;;;3.20;2.88;;;4.30;99.20;;;;;;4986478;28;20169;-43
2021/01/22 04:15:10;;;;;;;4.13;3.30;;;4.30;99.30;;;;;;4986156;28;20022;-42
2021/01/22 04:17:36;;;;;;;3.78;3.13;;;4.30;99.30;;;;;;4986615;28;20085;-42
2021/01/22 04:20:05;;;;;;;3.53;3.20;;;4.40;99.40;;;;;;4986052;28;20065;-42
2021/01/22 04:22:34;;;;;;;3.95;3.30;;;4.40;99.30;;;;;;4985913;28;20030;-42
2021/01/22 04:25:02;;;;;;;4.20;2.95;;;4.40;99.30;;;;;;4986080;28;20114;-42
2021/01/22 04:27:28;;;;;;;5.40;3.28;;;4.40;99.20;;;;;;4986093;28;20050;-42
2021/01/22 04:29:53;;;;;;;3.67;3.15;;;4.50;99.30;;;;;;4985572;28;20034;-43
2021/01/22 04:32:19;;;;;;;4.70;3.40;;;4.50;99.20;;;;;;4986830;28;20114;-42
2021/01/22 04:34:44;;;;;;;3.70;3.10;;;4.50;99.20;;;;;;4985486;28;20019;-43
2021/01/22 04:37:10;;;;;;;4.95;3.50;;;4.50;99.20;;;;;;4986250;28;20467;-42
2021/01/22 04:39:36;;;;;;;4.32;3.00;;;4.50;99.20;;;;;;4985831;28;20034;-42
2021/01/22 04:42:03;;;;;;;3.88;2.92;;;4.60;99.20;;;;;;4985420;28;20509;-42
2021/01/22 04:44:28;;;;;;;6.82;3.28;;;4.60;99.20;;;;;;4986293;28;20048;-42
2021/01/22 04:46:55;;;;;;;3.90;2.55;;;4.60;99.10;;;;;;4981995;28;20042;-43
2021/01/22 04:49:21;;;;;;;4.07;3.20;;;4.70;99.20;;;;;;4985904;28;20058;-43
2021/01/22 04:51:50;;;;;;;3.88;3.28;;;4.70;99.10;;;;;;4985781;28;20170;-42
2021/01/22 04:54:25;;;;;;;5.82;3.05;;;4.60;99.10;;;;;;4986152;28;20096;-42
2021/01/22 04:56:52;;;;;;;4.05;3.28;;;4.60;99.10;;;;;;4985397;28;20379;-43
2021/01/22 04:59:31;;;;;;;5.13;3.35;;;4.70;99.10;;;;;;4986083;28;20628;-43
2021/01/22 05:01:58;;;;;;;4.03;3.45;;;4.70;99.10;;;;;;4985384;28;20023;-42
2021/01/22 05:04:24;;;;;;;5.07;3.63;;;4.60;99.00;;;;;;4985701;28;20030;-42
2021/01/22 05:06:50;;;;;;;4.88;3.42;;;4.70;99.10;;;;;;4985191;28;20440;-43
2021/01/22 05:09:19;;;;;;;5.38;3.95;;;4.60;99.00;;;;;;4985921;28;20085;-42
2021/01/22 05:11:44;;;;;;;5.45;4.15;;;4.70;99.00;;;;;;4984634;28;20080;-43
2021/01/22 05:14:13;;;;;;;7.53;4.53;;;4.70;99.00;;;;;;4991936;28;20470;-43
2021/01/22 05:16:39;;;;;;;6.00;4.85;;;4.70;99.00;;;;;;4991330;28;20137;-43
2021/01/22 05:19:20;;;;;;;8.68;5.85;;;4.70;99.00;;;;;;4992557;28;20056;-42
2021/01/22 05:21:45;;;;;;;8.38;6.45;;;4.70;99.00;;;;;;4991716;28;20030;-42
2021/01/22 05:24:22;;;;;;;9.77;7.85;;;4.70;99.00;;;;;;4992019;28;20022;-42
2021/01/22 05:26:56;;;;;;;8.38;7.20;;;4.70;99.00;;;;;;4991403;28;20093;-43
2021/01/22 05:29:22;;;;;;;14.27;9.73;;;4.70;99.00;;;;;;4992858;28;20034;-42
2021/01/22 05:31:47;;;;;;;12.23;9.13;;;4.70;99.00;;;;;;4991184;28;20093;-40
2021/01/22 05:34:13;;;;;;;13.60;9.55;;;4.70;99.10;;;;;;4992379;28;20114;-43
2021/01/22 05:36:39;;;;;;;13.73;10.27;;;4.80;99.00;;;;;;4992000;28;20035;-42
2021/01/22 05:39:05;;;;;;;13.82;10.95;;;4.80;99.00;;;;;;4980874;28;20030;-44
2021/01/22 05:44:25;;;;;;;16.80;12.63;;;4.80;99.00;;;;;;4969097;28;20064;-42
2021/01/22 05:47:23;;;;;;;15.07;12.27;;;4.80;99.00;;;;;;4991547;28;20552;-42
2021/01/22 05:49:58;;;;;;;15.75;12.60;;;4.80;99.00;;;;;;4958317;28;20192;-42
2021/01/22 05:52:27;;;;;;;17.25;12.95;;;4.80;99.00;;;;;;4991758;28;20030;-43
2021/01/22 05:54:52;;;;;;;18.58;13.88;;;4.80;99.00;;;;;;4991977;28;20053;-43
2021/01/22 05:57:19;;;;;;;18.20;14.13;;;4.80;99.00;;;;;;4992010;28;20018;-43
2021/01/22 05:59:45;;;;;;;17.70;13.75;;;4.80;99.10;;;;;;4990982;28;20034;-43
2021/01/22 06:02:31;;;;;;;19.20;14.27;;;4.90;99.10;;;;;;4992362;28;20433;-43
2021/01/22 06:05:16;;;;;;;18.95;14.27;;;4.80;99.00;;;;;;4980727;28;20489;-43
2021/01/22 06:07:46;;;;;;;20.77;14.38;;;4.90;99.00;;;;;;4974281;28;20042;-45
2021/01/22 06:10:20;;;;;;;19.58;15.32;;;4.80;99.00;;;;;;4981651;28;20134;-43
2021/01/22 06:12:52;;;;;;;19.23;14.32;;;4.80;99.00;;;;;;4991356;28;20041;-43
2021/01/22 06:15:22;;;;;;;17.67;14.07;;;4.80;99.00;;;;;;4992389;28;20030;-42
2021/01/22 06:17:53;;;;;;;18.90;14.50;;;4.90;99.00;;;;;;4991719;28;20113;-42
2021/01/22 06:20:23;;;;;;;19.98;16.10;;;4.80;99.00;;;;;;4991031;28;20030;-43
2021/01/22 06:23:02;;;;;;;17.83;14.85;;;4.90;99.00;;;;;;4991466;28;20374;-42
2021/01/22 06:25:30;;;;;;;20.77;15.63;;;4.90;99.00;;;;;;4988848;28;20038;-43
2021/01/22 06:27:57;;;;;;;18.60;15.00;;;4.90;99.00;;;;;;4988097;28;20031;-43
2021/01/22 06:30:24;;;;;;;21.33;15.52;;;4.90;99.00;;;;;;4989050;28;20343;-42
2021/01/22 06:32:50;;;;;;;19.35;15.65;;;4.90;99.00;;;;;;4988216;28;20023;-42
2021/01/22 06:35:16;;;;;;;19.83;14.98;;;4.90;99.00;;;;;;4988574;28;20089;-42
2021/01/22 06:37:42;;;;;;;20.00;15.43;;;4.90;98.90;;;;;;4987872;28;20057;-42
2021/01/22 06:40:08;;;;;;;21.27;15.63;;;4.90;98.90;;;;;;4988403;28;20137;-42
2021/01/22 06:42:38;;;;;;;21.20;15.07;;;4.90;98.90;;;;;;4988062;28;20023;-41
2021/01/22 06:45:07;;;;;;;18.45;14.38;;;4.90;98.90;;;;;;4988456;28;20154;-42
2021/01/22 06:47:33;;;;;;;19.65;15.15;;;4.90;98.90;;;;;;4988347;28;20515;-42
2021/01/22 06:49:59;;;;;;;20.00;14.77;;;4.90;98.90;;;;;;4987692;28;20026;-44
2021/01/22 06:52:25;;;;;;;17.40;15.07;;;4.90;98.80;;;;;;4988832;28;20026;-43
2021/01/22 06:54:56;;;;;;;17.73;13.55;;;4.90;98.80;;;;;;4987861;28;20033;-42
2021/01/22 06:57:23;;;;;;;21.33;14.32;;;4.80;98.80;;;;;;4982967;28;20038;-42
2021/01/22 06:59:48;;;;;;;17.95;14.30;;;4.80;98.70;;;;;;4984595;28;20018;-42
2021/01/22 07:02:32;;;;;;;20.35;15.27;;;4.80;98.70;;;;;;4985088;28;20030;-42
2021/01/22 07:04:58;;;;;;;21.02;14.38;;;4.70;98.70;;;;;;4986978;28;20113;-42
2021/01/22 07:07:46;;;;;;;18.80;13.57;;;4.70;98.70;;;;;;4987073;28;20783;-42
2021/01/22 07:10:12;;;;;;;17.80;13.15;;;4.60;98.70;;;;;;4987045;28;20026;-42
2021/01/22 07:12:40;;;;;;;18.10;12.77;;;4.50;98.70;;;;;;4986608;28;20041;-42
2021/01/22 07:15:21;;;;;;;15.98;12.77;;;4.50;99.00;;;;;;4987695;28;20023;-44
2021/01/22 07:17:58;;;;;;;18.02;12.50;;;4.50;98.70;;;;;;4986269;28;20038;-43
2021/01/22 07:20:25;;;;;;;19.42;12.88;;;4.40;98.80;;;;;;4987925;28;20517;-44
2021/01/22 07:23:00;;;;;;;15.15;12.38;;;4.40;98.80;;;;;;4985087;28;20022;-44
2021/01/22 07:25:46;;;;;;;17.85;13.32;;;4.40;98.80;;;;;;4986103;28;20113;-43
2021/01/22 07:28:11;;;;;;;19.70;14.30;;;4.40;98.90;;;;;;4985776;28;20106;-43
2021/01/22 07:30:41;;;;;;;20.38;13.60;;;4.40;98.90;;;;;;4976339;28;20045;-43
2021/01/22 07:33:25;;;;;;;17.65;13.18;;;4.40;98.90;;;;;;4987872;28;20045;-44
2021/01/22 07:36:02;;;;;;;17.35;13.82;;;4.50;98.90;;;;;;4986528;28;20442;-43
2021/01/22 07:38:28;;;;;;;19.70;13.18;;;4.50;98.90;;;;;;4987617;28;20109;-44
2021/01/22 07:40:55;;;;;;;16.10;13.18;;;4.50;98.90;;;;;;4986823;28;20109;-43
2021/01/22 07:43:21;;;;;;;17.10;12.73;;;4.50;98.80;;;;;;4987368;28;20035;-42
2021/01/22 07:45:47;;;;;;;15.20;12.82;;;4.50;98.80;;;;;;4986396;28;20050;-43
2021/01/22 07:48:30;;;;;;;16.45;12.63;;;4.50;99.00;;;;;;4987419;28;20040;-42
2021/01/22 07:50:55;;;;;;;16.25;12.25;;;4.50;98.70;;;;;;4980803;28;20026;-42
2021/01/22 07:53:21;;;;;;;15.73;11.95;;;4.50;98.80;;;;;;4987270;28;20081;-43
2021/01/22 07:55:53;;;;;;;18.38;13.18;;;4.50;98.80;;;;;;4986971;28;20038;-44
2021/01/22 07:58:19;;;;;;;13.48;11.95;;;4.50;98.70;;;;;;4983504;28;20022;-42
2021/01/22 08:00:45;;;;;;;17.00;12.23;;;4.50;98.70;;;;;;4987439;28;20034;-42
2021/01/22 08:03:13;;;;;;;17.80;12.77;;;4.40;98.70;;;;;;4987701;28;20031;-43
2021/01/22 08:05:40;;;;;;;16.20;12.23;;;4.40;98.80;;;;;;4986159;28;20096;-43
2021/01/22 08:08:27;;;;;;;16.80;12.77;;;4.40;98.70;;;;;;4987287;28;20035;-42
2021/01/22 08:10:53;;;;;;;15.88;11.82;;;4.40;98.80;;;;;;4967166;28;20039;-42
2021/01/22 08:13:19;;;;;;;19.13;11.52;;;4.40;98.70;;;;;;4983985;28;20019;-43
2021/01/22 08:15:44;;;;;;;14.23;10.82;;;4.40;98.70;;;;;;4979889;28;20220;-42
2021/01/22 08:18:12;;;;;;;15.30;12.23;;;4.40;98.80;;;;;;4985480;28;20018;-43
2021/01/22 08:20:38;;;;;;;16.45;12.48;;;4.40;98.80;;;;;;4977888;28;20031;-43
2021/01/22 08:23:05;;;;;;;17.40;11.95;;;4.50;98.90;;;;;;4979512;28;20021;-42
2021/01/22 08:25:35;;;;;;;15.93;11.57;;;4.50;98.80;;;;;;4978078;28;20142;-42
2021/01/22 08:28:01;;;;;;;14.45;10.60;;;4.50;98.80;;;;;;4981451;28;20034;-44
2021/01/22 08:30:27;;;;;;;14.55;10.07;;;4.60;98.80;;;;;;4983471;28;20137;-43
2021/01/22 08:32:53;;;;;;;16.27;10.35;;;4.70;98.80;;;;;;4986035;28;20635;-42
2021/01/22 08:35:20;;;;;;;16.70;9.95;;;4.70;98.70;;;;;;4985926;28;20594;-42
2021/01/22 08:37:49;;;;;;;15.23;11.40;;;4.70;98.70;;;;;;4985688;28;20033;-42
2021/01/22 08:40:15;;;;;;;12.05;10.00;;;4.70;98.70;;;;;;4983759;28;20098;-43
2021/01/22 08:42:58;;;;;;;15.38;10.48;;;4.70;98.70;;;;;;4985332;28;20494;-43
2021/01/22 08:45:24;;;;;;;;;;;4.70;98.70;;;;;;4987103;28;20552;-43
2021/01/22 08:47:49;;;;;;;13.63;10.05;;;4.70;98.70;;;;;;4984764;28;19913;-44
2021/01/22 08:50:18;;;;;;;13.10;9.23;;;4.70;98.60;;;;;;4986218;28;20049;-42
2021/01/22 08:52:44;;;;;;;14.38;9.80;;;4.70;98.60;;;;;;4985622;28;20042;-43
2021/01/22 08:55:24;;;;;;;14.27;10.43;;;4.80;98.60;;;;;;4985649;28;20030;-42
2021/01/22 08:58:07;;;;;;;16.35;9.52;;;4.80;98.60;;;;;;4985428;28;20038;-43
2021/01/22 09:00:33;;;;;;;11.23;8.93;;;4.80;98.60;;;;;;4983467;28;20018;-43
2021/01/22 09:02:59;;;;;;;15.13;9.35;;;4.80;98.60;;;;;;4984805;28;20418;-42
2021/01/22 09:05:25;;;;;;;14.30;9.32;;;4.90;98.60;;;;;;4986138;28;20069;-43
2021/01/22 09:08:11;;;;;;;11.55;9.18;;;4.90;98.50;;;;;;4985616;28;20041;-43
2021/01/22 09:10:42;;;;;;;17.10;9.95;;;4.90;98.50;;;;;;4983899;28;20113;-43
2021/01/22 09:13:09;;;;;;;10.85;8.52;;;4.90;98.50;;;;;;4986079;28;20034;-43
2021/01/22 09:15:35;;;;;;;15.48;9.43;;;4.90;98.50;;;;;;4983985;28;20548;-43
2021/01/22 09:18:20;;;;;;;12.90;9.18;;;4.90;98.50;;;;;;4984669;28;20435;-43
2021/01/22 09:21:00;;;;;;;14.70;9.32;;;4.90;98.50;;;;;;4981089;28;20103;-43
2021/01/22 09:23:29;;;;;;;13.02;9.20;;;5.00;98.60;;;;;;4986089;28;20109;-42
2021/01/22 09:25:56;;;;;;;13.48;10.05;;;5.00;98.50;;;;;;4984953;28;20042;-43
2021/01/22 09:28:22;;;;;;;17.52;10.70;;;5.00;98.50;;;;;;4986259;28;20033;-43
2021/01/22 09:30:47;;;;;;;19.98;11.63;;;5.10;98.50;;;;;;4984680;28;20611;-42
2021/01/22 09:33:14;;;;;;;22.02;11.23;;;5.10;98.50;;;;;;4986377;28;20019;-43
2021/01/22 09:35:43;;;;;;;19.85;10.77;;;5.10;98.50;;;;;;4985174;28;20075;-42
2021/01/22 09:38:11;;;;;;;17.80;9.85;;;5.10;98.40;;;;;;4985721;28;20370;-43
2021/01/22 09:40:37;;;;;;;15.32;10.73;;;5.10;98.40;;;;;;4985825;28;20445;-43
2021/01/22 09:43:03;;;;;;;12.93;9.10;;;5.10;98.40;;;;;;4982462;28;20034;-43
2021/01/22 09:45:29;;;;;;;12.25;8.55;;;5.10;98.40;;;;;;4980060;28;20042;-43
2021/01/22 09:47:55;;;;;;;14.02;8.80;;;5.10;98.40;;;;;;4985293;28;20117;-43
2021/01/22 09:50:20;;;;;;;13.18;8.55;;;5.20;98.40;;;;;;4985512;28;20022;-43
2021/01/22 09:52:46;;;;;;;13.05;8.70;;;5.20;98.40;;;;;;4984669;28;20061;-43
2021/01/22 09:55:17;;;;;;;11.65;8.80;;;5.30;98.40;;;;;;4985178;28;20088;-42
2021/01/22 09:57:43;;;;;;;13.82;8.60;;;5.30;98.40;;;;;;4985467;28;20441;-43
2021/01/22 10:00:11;;;;;;;14.00;8.80;;;5.40;98.40;;;;;;4988427;28;20086;-43
2021/01/22 10:02:36;;;;;;;13.93;9.55;;;5.40;98.40;;;;;;4988921;28;20648;-42
2021/01/22 10:05:03;;;;;;;15.73;9.73;;;5.40;98.30;;;;;;4988218;28;20045;-42
2021/01/22 10:07:29;;;;;;;12.77;8.15;;;5.50;98.40;;;;;;4988886;28;20042;-42
2021/01/22 10:09:55;;;;;;;12.30;8.57;;;5.50;98.30;;;;;;4988422;28;20444;-43
2021/01/22 10:12:23;;;;;;;12.95;8.52;;;5.60;98.30;;;;;;4988303;28;20030;-44
2021/01/22 10:14:49;;;;;;;12.52;8.05;;;5.70;98.30;;;;;;4989059;28;20140;-42
2021/01/22 10:17:14;;;;;;;13.63;8.13;;;5.80;98.30;;;;;;4988587;28;20462;-44
2021/01/22 10:19:40;;;;;;;13.88;7.60;;;5.90;98.50;;;;;;4987722;28;20584;-44
2021/01/22 10:22:06;;;;;;;12.52;8.13;;;6.00;98.10;;;;;;4988382;28;20081;-43
2021/01/22 10:24:31;;;;;;;13.98;8.05;;;6.00;98.00;;;;;;4989184;28;20030;-44
2021/01/22 10:26:57;;;;;;;11.15;7.65;;;6.10;98.00;;;;;;4987495;28;20069;-43
2021/01/22 10:29:22;;;;;;;14.70;7.35;;;6.20;97.90;;;;;;4989417;28;20078;-43
2021/01/22 10:31:48;;;;;;;10.48;7.00;;;6.20;97.90;;;;;;4988222;28;20041;-43
2021/01/22 10:34:14;;;;;;;13.15;6.68;;;6.30;97.90;;;;;;4988426;28;20027;-43
2021/01/22 10:36:43;;;;;;;12.38;7.55;;;6.30;97.80;;;;;;4988475;28;20058;-42
2021/01/22 10:39:09;;;;;;;9.95;7.05;;;6.30;97.80;;;;;;4977956;28;20048;-42
2021/01/22 10:41:35;;;;;;;12.55;7.50;;;6.30;97.70;;;;;;4987806;28;20031;-43
2021/01/22 10:44:00;;;;;;;13.05;7.70;;;6.30;97.70;;;;;;4988283;28;20081;-42
2021/01/22 10:46:28;;;;;;;12.95;7.38;;;6.40;97.70;;;;;;4988779;28;20038;-43
2021/01/22 10:48:54;;;;;;;11.63;7.20;;;6.40;97.70;;;;;;4986449;28;20038;-42
2021/01/22 10:51:19;;;;;;;13.18;7.63;;;6.40;97.50;;;;;;4988384;28;20037;-42
2021/01/22 10:53:45;;;;;;;13.40;7.10;;;6.30;97.50;;;;;;4987760;28;20080;-43
2021/01/22 10:56:10;;;;;;;12.20;6.50;;;6.30;97.50;;;;;;4988154;28;20030;-43
2021/01/22 10:58:38;;;;;;;10.13;6.88;;;6.30;97.50;;;;;;4987884;28;20030;-43
2021/01/22 11:01:03;;;;;;;8.43;6.38;;;6.40;97.50;;;;;;4988804;28;20073;-43
2021/01/22 11:03:30;;;;;;;10.82;6.53;;;6.30;97.50;;;;;;4987332;28;20438;-44
2021/01/22 11:05:56;;;;;;;8.90;6.05;;;6.30;97.50;;;;;;4978540;28;20039;-43
2021/01/22 11:08:22;;;;;;;9.30;6.05;;;6.30;97.50;;;;;;4983600;28;20076;-42
2021/01/22 11:10:47;;;;;;;11.38;6.90;;;6.30;97.50;;;;;;4982482;28;20026;-43
2021/01/22 11:13:13;;;;;;;9.10;5.95;;;6.30;97.50;;;;;;4987551;28;20018;-43
2021/01/22 11:15:41;;;;;;;11.45;6.05;;;6.30;97.50;;;;;;4987547;28;20034;-44
2021/01/22 11:18:08;;;;;;;13.50;6.32;;;6.20;97.50;;;;;;4987577;28;20109;-44
2021/01/22 11:20:33;;;;;;;13.85;6.13;;;6.30;97.50;;;;;;4987683;28;20539;-41
2021/01/22 11:22:59;;;;;;;9.57;6.05;;;6.20;97.50;;;;;;4987159;28;20036;-42
2021/01/22 11:25:24;;;;;;;10.40;6.32;;;6.20;97.60;;;;;;4987000;28;20226;-42
2021/01/22 11:27:50;;;;;;;11.07;5.95;;;6.30;97.90;;;;;;4987340;28;20185;-43
2021/01/22 11:30:19;;;;;;;8.60;5.85;;;6.30;97.60;;;;;;4986026;28;20038;-43
2021/01/22 11:32:45;;;;;;;15.25;5.97;;;6.40;97.60;;;;;;4986961;28;20034;-43
2021/01/22 11:35:12;;;;;;;10.20;4.82;;;6.50;97.50;;;;;;4985919;28;20033;-43
2021/01/22 11:37:38;;;;;;;10.68;4.80;;;6.50;97.50;;;;;;4986898;28;20423;-41
2021/01/22 11:40:06;;;;;;;10.43;5.18;;;6.60;97.40;;;;;;4987083;28;20018;-43
2021/01/22 11:42:32;;;;;;;9.93;5.40;;;6.70;97.30;;;;;;4987790;28;20034;-40
2021/01/22 11:44:58;;;;;;;8.88;5.00;;;6.80;97.20;;;;;;4985946;28;20033;-42
2021/01/22 11:47:23;;;;;;;9.57;5.38;;;6.80;97.00;;;;;;4986970;28;20037;-43
2021/01/22 11:49:49;;;;;;;13.00;4.93;;;6.80;96.90;;;;;;4986845;28;20450;-42
2021/01/22 11:52:15;;;;;;;8.30;4.50;;;6.80;96.90;;;;;;4986553;28;20076;-43
2021/01/22 11:54:40;;;;;;;7.82;4.90;;;6.90;96.90;;;;;;4986482;28;20106;-42
2021/01/22 11:57:09;;;;;;;12.00;5.60;;;6.90;96.80;;;;;;4987354;28;20026;-42
2021/01/22 11:59:34;;;;;;;7.78;4.85;;;7.00;96.80;;;;;;4985702;28;20026;-43
2021/01/22 12:02:00;;;;;;;10.23;4.95;;;7.00;96.60;;;;;;4986752;28;20533;-42
2021/01/22 12:04:26;;;;;;;9.38;4.43;;;7.10;96.60;;;;;;4986474;28;20023;-42
2021/01/22 12:06:52;;;;;;;8.00;4.50;;;7.20;96.50;;;;;;4984253;28;20569;-43
2021/01/22 12:09:17;;;;;;;10.15;4.88;;;7.20;96.30;;;;;;4976980;28;20232;-43
2021/01/22 12:11:43;;;;;;;9.30;4.32;;;7.30;96.30;;;;;;4982096;28;20065;-42
2021/01/22 12:14:09;;;;;;;7.97;4.80;;;7.40;96.20;;;;;;4983736;28;20030;-43
2021/01/22 12:16:34;;;;;;;8.75;4.90;;;7.40;96.00;;;;;;4985787;28;20026;-42
2021/01/22 12:19:00;;;;;;;8.30;4.68;;;7.40;95.70;;;;;;4985629;28;20030;-44
2021/01/22 12:21:25;;;;;;;9.55;4.60;;;7.40;95.60;;;;;;4986362;28;20552;-44
2021/01/22 12:23:51;;;;;;;10.05;5.32;;;7.40;95.60;;;;;;4985668;28;20537;-43
2021/01/22 12:26:17;;;;;;;8.30;5.03;;;7.40;95.50;;;;;;4985154;28;20184;-43
2021/01/22 12:28:42;;;;;;;9.30;4.80;;;7.40;95.50;;;;;;4985730;28;20720;-43
2021/01/22 12:31:08;;;;;;;8.38;4.15;;;7.40;95.40;;;;;;4986278;28;20450;-43
2021/01/22 12:33:35;;;;;;;9.13;3.90;;;7.30;95.30;;;;;;4985534;28;20022;-43
2021/01/22 12:36:00;;;;;;;9.88;4.20;;;7.30;95.30;;;;;;4985869;28;20081;-43
2021/01/22 12:38:26;;;;;;;11.00;4.03;;;7.30;95.30;;;;;;4986507;28;20034;-43
2021/01/22 12:40:52;;;;;;;8.90;3.47;;;7.20;95.20;;;;;;4976431;28;20027;-43
2021/01/22 12:43:18;;;;;;;10.30;4.32;;;7.10;95.10;;;;;;4983111;28;20351;-44
2021/01/22 12:45:44;;;;;;;7.32;3.50;;;7.10;95.20;;;;;;4976982;28;20042;-42
2021/01/22 12:48:12;;;;;;;9.07;3.65;;;7.00;95.30;;;;;;4980960;28;20113;-43
2021/01/22 12:50:39;;;;;;;10.50;3.85;;;6.90;95.30;;;;;;4972458;28;20450;-33
2021/01/22 12:53:05;;;;;;;10.55;3.92;;;6.90;95.30;;;;;;4986244;28;20762;-43
2021/01/22 12:55:31;;;;;;;11.45;3.70;;;6.90;95.30;;;;;;4985559;28;20109;-43
2021/01/22 12:57:56;;;;;;;9.65;3.78;;;6.90;95.60;;;;;;4982196;28;20027;-43